Terminal Aerodrome Forecast
Issued by NWS Wilmington, OH

Current Version | Previous Version | Text Only | Print | Product List | Glossary Off
Versions: 1 2 3 4 5 6 7 8 9 10 11 12 13 14 15 16

000
FTUS41 KILN 261402 AAA
TAFCMH
TAF AMD
KCMH 261402Z 2614/2712 20007KT P6SM SCT025 BKN070
     FM261700 22010KT P6SM BKN035
     FM270100 17004KT P6SM SCT040 BKN250=

USA.gov is the U.S. government's official web portal to all federal, state and local government web resources and services.